createdAt,value
2019-05-15T00:00:19.140Z,2.80
2019-05-15T00:04:22.249Z,2.97
2019-05-15T00:08:25.259Z,3.33
2019-05-15T00:12:28.510Z,3.47
2019-05-15T00:16:31.806Z,2.87
2019-05-15T00:20:34.821Z,2.37
2019-05-15T00:24:38.238Z,2.80
2019-05-15T00:28:41.432Z,2.90
2019-05-15T00:32:44.449Z,2.17
2019-05-15T00:36:48.958Z,2.50
2019-05-15T00:40:52.173Z,3.70
2019-05-15T00:44:55.297Z,2.50
2019-05-15T00:48:59.161Z,3.00
2019-05-15T00:53:02.421Z,3.20
2019-05-15T00:57:05.441Z,2.43
2019-05-15T01:01:09.656Z,2.33
2019-05-15T01:05:15.547Z,2.90
2019-05-15T01:09:18.804Z,2.80
2019-05-15T01:13:23.565Z,2.10
2019-05-15T01:17:29.043Z,2.83
2019-05-15T01:21:32.277Z,2.47
2019-05-15T01:25:35.287Z,2.77
2019-05-15T01:29:44.551Z,2.33
2019-05-15T01:33:43.245Z,3.10
2019-05-15T01:37:48.178Z,2.63
2019-05-15T01:41:51.257Z,2.60
2019-05-15T01:45:54.359Z,2.53
2019-05-15T01:49:58.295Z,2.77
2019-05-15T01:54:01.387Z,2.47
2019-05-15T01:58:04.505Z,2.83
2019-05-15T02:02:09.619Z,2.57
2019-05-15T02:06:12.682Z,2.70
2019-05-15T02:10:15.686Z,2.73
2019-05-15T02:14:19.107Z,2.60
2019-05-15T02:18:22.284Z,2.70
2019-05-15T02:22:25.296Z,2.10
2019-05-15T02:26:28.594Z,2.50
2019-05-15T02:30:34.099Z,2.70
2019-05-15T02:34:39.488Z,3.40
2019-05-15T02:38:41.517Z,3.43
2019-05-15T02:42:44.565Z,2.57
2019-05-15T02:46:49.941Z,2.43
2019-05-15T02:50:52.515Z,2.60
2019-05-15T02:54:55.610Z,3.70
2019-05-15T02:58:59.893Z,2.60
2019-05-15T03:03:03.486Z,2.80
2019-05-15T03:07:09.435Z,2.83
2019-05-15T03:11:11.605Z,3.10
2019-05-15T03:15:15.036Z,3.30
2019-05-15T03:19:19.240Z,3.00
2019-05-15T03:23:22.575Z,2.67
2019-05-15T03:27:25.583Z,2.90
2019-05-15T03:31:50.289Z,3.10
2019-05-15T03:35:33.551Z,3.03
2019-05-15T03:39:39.232Z,3.27
2019-05-15T03:43:41.837Z,3.03
2019-05-15T03:47:44.921Z,3.03
2019-05-15T03:51:50.011Z,3.20
2019-05-15T03:55:53.070Z,2.63
2019-05-15T03:59:56.120Z,3.00
2019-05-15T04:03:59.935Z,3.43
2019-05-15T04:08:03.212Z,3.23
2019-05-15T04:12:09.178Z,2.97
2019-05-15T04:16:11.223Z,3.20
2019-05-15T04:20:14.455Z,3.53
2019-05-15T04:24:19.013Z,3.00
2019-05-15T04:28:23.970Z,2.60
2019-05-15T04:32:28.916Z,2.93
2019-05-15T04:36:32.060Z,3.77
2019-05-15T04:40:35.180Z,2.50
2019-05-15T04:44:39.455Z,3.03
2019-05-15T04:48:42.798Z,2.70
2019-05-15T04:52:45.922Z,3.17
2019-05-15T04:56:49.122Z,2.67
2019-05-15T05:00:54.102Z,3.00
2019-05-15T05:04:58.826Z,2.40
2019-05-15T05:09:04.525Z,2.50
2019-05-15T05:13:08.757Z,2.70
2019-05-15T05:17:12.171Z,2.90
2019-05-15T05:21:15.244Z,3.33
2019-05-15T05:25:18.342Z,3.50
2019-05-15T05:29:21.437Z,2.70
2019-05-15T05:33:24.513Z,2.60
2019-05-15T05:37:28.056Z,3.03
2019-05-15T05:41:31.228Z,2.70
2019-05-15T05:45:34.224Z,2.20
2019-05-15T05:49:38.282Z,2.87
2019-05-15T05:53:41.411Z,2.53
2019-05-15T05:57:44.410Z,3.33
2019-05-15T06:01:48.455Z,2.37
2019-05-15T06:05:53.464Z,3.03
2019-05-15T06:09:58.143Z,3.37
2019-05-15T06:14:01.412Z,4.10
2019-05-15T06:18:04.607Z,3.30
2019-05-15T06:22:08.779Z,3.40
2019-05-15T06:26:12.118Z,3.00
2019-05-15T06:30:22.256Z,3.20
2019-05-15T06:34:20.242Z,3.30
2019-05-15T06:38:23.239Z,3.20
2019-05-15T06:42:28.334Z,2.73
2019-05-15T06:46:31.124Z,2.63
2019-05-15T06:50:38.865Z,2.97
2019-05-15T06:54:41.863Z,2.47
2019-05-15T06:58:44.878Z,2.10
2019-05-15T07:02:48.646Z,1.90
2019-05-15T07:06:52.799Z,2.33
2019-05-15T07:10:57.863Z,1.90
2019-05-15T07:15:00.788Z,1.47
2019-05-15T07:19:03.792Z,2.20
2019-05-15T07:23:08.804Z,1.80
2019-05-15T07:27:11.791Z,2.10
2019-05-15T07:31:15.135Z,1.57
2019-05-15T07:35:19.115Z,1.77
2019-05-15T07:39:22.345Z,1.50
2019-05-15T07:43:25.342Z,1.00
2019-05-15T07:47:29.442Z,1.60
2019-05-15T07:51:32.461Z,1.73
2019-05-15T07:55:35.467Z,1.50
2019-05-15T07:59:40.479Z,1.60
2019-05-15T08:03:58.513Z,1.50
2019-05-15T08:07:49.410Z,1.60
2019-05-15T08:11:52.428Z,1.77
2019-05-15T08:15:57.862Z,4.10
2019-05-15T08:20:00.439Z,1.90
2019-05-15T08:24:05.522Z,2.07
2019-05-15T08:28:09.007Z,1.50
2019-05-15T08:32:12.098Z,1.63
2019-05-15T08:36:15.087Z,1.30
2019-05-15T08:40:18.501Z,1.40
2019-05-15T08:44:21.487Z,1.70
2019-05-15T08:48:24.500Z,2.17
2019-05-15T08:52:28.281Z,1.77
2019-05-15T08:56:31.422Z,1.70
2019-05-15T09:00:34.423Z,1.60
2019-05-15T09:04:38.698Z,1.80
2019-05-15T09:08:44.545Z,2.10
2019-05-15T09:12:50.212Z,1.90
2019-05-15T09:16:52.540Z,1.90
2019-05-15T09:20:55.595Z,1.80
2019-05-15T09:24:59.061Z,1.90
2019-05-15T09:29:02.481Z,2.47
2019-05-15T09:33:05.467Z,1.27
2019-05-15T09:37:08.704Z,1.80
2019-05-15T09:41:11.779Z,1.90
2019-05-15T09:45:14.884Z,1.97
2019-05-15T09:49:18.286Z,2.93
2019-05-15T09:53:21.476Z,2.00
2019-05-15T09:57:24.472Z,2.30
2019-05-15T10:01:28.479Z,2.17
2019-05-15T10:05:31.779Z,1.90
2019-05-15T10:09:35.712Z,1.87
2019-05-15T10:13:38.737Z,2.23
2019-05-15T10:17:44.079Z,1.80
2019-05-15T10:21:52.958Z,2.43
2019-05-15T10:25:52.000Z,1.67
2019-05-15T10:29:54.995Z,1.90
2019-05-15T10:33:58.415Z,1.93
2019-05-15T10:38:01.585Z,2.10
2019-05-15T10:42:04.579Z,1.80
2019-05-15T10:46:13.536Z,1.87
2019-05-15T10:50:28.389Z,1.90
2019-05-15T10:54:31.698Z,2.00
2019-05-15T10:58:34.698Z,1.97
2019-05-15T11:02:39.496Z,1.83
2019-05-15T11:06:42.611Z,1.83
2019-05-15T11:10:49.510Z,1.80
2019-05-15T11:14:52.315Z,2.27
2019-05-15T11:18:55.370Z,2.00
2019-05-15T11:22:59.080Z,2.70
2019-05-15T11:27:02.327Z,2.00
2019-05-15T11:31:05.369Z,2.50
2019-05-15T11:35:08.973Z,1.87
2019-05-15T11:39:12.070Z,2.10
2019-05-15T11:43:15.118Z,1.90
2019-05-15T11:47:18.549Z,2.07
2019-05-15T11:51:21.839Z,2.00
2019-05-15T11:55:24.998Z,2.20
2019-05-15T11:59:30.079Z,1.80
2019-05-15T12:03:33.109Z,2.10
2019-05-15T12:07:38.157Z,1.70
2019-05-15T12:11:42.859Z,2.20
2019-05-15T12:15:48.243Z,1.97
2019-05-15T12:20:05.311Z,1.70
2019-05-15T12:23:55.700Z,1.60
2019-05-15T12:27:59.617Z,2.00
2019-05-15T12:32:21.881Z,1.73
2019-05-15T12:36:10.583Z,2.13
2019-05-15T13:00:38.335Z,1.80
2019-05-15T13:04:41.531Z,2.20
2019-05-15T13:08:45.551Z,2.27
2019-05-15T13:13:00.813Z,2.00
2019-05-15T13:16:54.122Z,1.63
2019-05-15T13:20:59.584Z,1.93
2019-05-15T13:25:05.105Z,4.03
2019-05-15T13:29:08.978Z,2.10
2019-05-15T13:33:12.277Z,2.70
2019-05-15T13:37:26.381Z,1.93
2019-05-15T13:41:20.227Z,2.20
2019-05-15T13:45:23.365Z,2.10
2019-05-15T13:49:28.123Z,1.63
2019-05-15T13:53:31.271Z,2.00
2019-05-15T13:57:34.256Z,1.83
2019-05-15T14:01:39.313Z,2.27
2019-05-15T14:05:44.977Z,2.80
2019-05-15T14:09:48.307Z,2.00
2019-05-15T14:13:52.191Z,2.10
2019-05-15T14:17:57.799Z,1.77
2019-05-15T14:22:01.040Z,1.80
2019-05-15T14:26:17.107Z,2.20
2019-05-15T14:30:09.240Z,1.83
2019-05-15T14:34:12.238Z,1.87
2019-05-15T14:38:15.272Z,1.30
2019-05-15T14:42:18.716Z,1.77
2019-05-15T14:46:21.882Z,1.67
2019-05-15T14:50:24.884Z,1.83
2019-05-15T14:54:28.994Z,1.87
2019-05-15T14:58:32.323Z,1.40
2019-05-15T15:02:35.337Z,1.43
2019-05-15T15:06:38.419Z,1.50
2019-05-15T15:10:41.523Z,1.30
2019-05-15T15:14:48.533Z,1.20
2019-05-15T15:18:51.813Z,1.50
2019-05-15T15:22:54.907Z,1.57
2019-05-15T15:26:58.843Z,1.53
2019-05-15T15:31:02.337Z,1.53
2019-05-15T15:35:08.484Z,1.50
2019-05-15T15:39:11.818Z,0.93
2019-05-15T15:43:14.815Z,1.10
2019-05-15T15:47:17.922Z,1.10
2019-05-15T15:51:20.951Z,1.20
2019-05-15T15:55:24.095Z,1.50
2019-05-15T15:59:28.904Z,1.40
2019-05-15T16:03:32.027Z,1.70
2019-05-15T16:07:35.128Z,1.33
2019-05-15T16:11:38.531Z,1.47
2019-05-15T16:15:43.280Z,1.30
2019-05-15T16:19:46.279Z,1.30
2019-05-15T16:23:49.323Z,1.40
2019-05-15T16:27:52.487Z,1.57
2019-05-15T16:31:55.563Z,1.20
2019-05-15T16:35:58.698Z,0.97
2019-05-15T16:40:04.407Z,1.80
2019-05-15T16:44:08.582Z,1.30
2019-05-15T16:48:12.120Z,1.90
2019-05-15T16:52:15.206Z,1.67
2019-05-15T16:56:19.279Z,1.50
2019-05-15T17:00:22.767Z,1.13
2019-05-15T17:04:26.015Z,1.30
2019-05-15T17:08:32.255Z,1.10
2019-05-15T17:12:35.518Z,1.33
2019-05-15T17:16:39.051Z,1.53
2019-05-15T17:20:42.151Z,2.60
2019-05-15T17:24:45.175Z,1.70
2019-05-15T17:28:48.159Z,1.33
2019-05-15T17:32:51.167Z,1.40
2019-05-15T17:36:55.204Z,1.50
2019-05-15T17:40:58.213Z,1.40
2019-05-15T17:45:01.224Z,1.57
2019-05-15T17:49:08.841Z,1.50
2019-05-15T17:53:10.183Z,2.67
2019-05-15T17:57:13.174Z,1.97
2019-05-15T18:01:16.239Z,1.70
2019-05-15T18:05:20.234Z,1.37
2019-05-15T18:09:23.869Z,1.90
2019-05-15T18:13:28.676Z,1.70
2019-05-15T18:17:33.475Z,2.53
2019-05-15T18:21:38.321Z,2.00
2019-05-15T18:25:41.462Z,1.47
2019-05-15T18:29:48.023Z,1.60
2019-05-15T18:33:53.660Z,1.47
2019-05-15T18:37:56.277Z,1.87
2019-05-15T18:41:59.979Z,1.50
2019-05-15T18:46:03.487Z,1.70
2019-05-15T18:50:12.625Z,1.90
2019-05-15T18:54:12.947Z,1.63
2019-05-15T18:58:18.770Z,1.40
2019-05-15T19:02:20.899Z,1.33
2019-05-15T19:06:24.002Z,1.63
2019-05-15T19:10:33.039Z,1.20
2019-05-15T19:14:39.254Z,1.50
2019-05-15T19:18:41.751Z,1.37
2019-05-15T19:22:44.798Z,1.50
2019-05-15T19:26:48.252Z,1.47
2019-05-15T19:30:51.424Z,1.60
2019-05-15T19:34:54.527Z,2.20
2019-05-15T19:38:57.528Z,1.50
2019-05-15T19:43:03.866Z,1.77
2019-05-15T19:47:07.822Z,1.83
2019-05-15T19:51:19.768Z,2.40
2019-05-15T19:55:23.285Z,1.53
2019-05-15T19:59:29.036Z,1.57
2019-05-15T20:03:31.372Z,2.43
2019-05-15T20:07:34.428Z,2.47
2019-05-15T20:11:38.525Z,2.10
2019-05-15T20:15:41.751Z,2.30
2019-05-15T20:19:48.693Z,2.57
2019-05-15T20:23:51.421Z,2.30
2019-05-15T20:27:54.640Z,2.20
2019-05-15T20:31:58.638Z,2.70
2019-05-15T20:36:01.842Z,2.17
2019-05-15T20:40:09.107Z,2.03
2019-05-15T20:44:12.450Z,2.00
2019-05-15T20:48:15.454Z,5.50
2019-05-15T20:52:21.601Z,9.70
2019-05-15T20:56:23.349Z,5.30
2019-05-15T21:00:26.447Z,4.70
2019-05-15T21:04:29.452Z,4.50
2019-05-15T21:08:32.438Z,5.40
2019-05-15T21:12:35.435Z,5.17
2019-05-15T21:16:38.462Z,5.47
2019-05-15T21:20:42.047Z,4.50
2019-05-15T21:24:45.080Z,3.40
2019-05-15T21:28:48.345Z,2.47
2019-05-15T21:32:51.472Z,3.03
2019-05-15T21:36:54.461Z,3.00
2019-05-15T21:40:58.629Z,2.87
2019-05-15T21:45:04.403Z,1.63
2019-05-15T21:49:08.778Z,2.17
2019-05-15T21:53:11.971Z,1.90
2019-05-15T21:57:32.297Z,2.20
2019-05-15T22:01:20.182Z,2.13
2019-05-15T22:05:23.203Z,2.10
2019-05-15T22:09:26.218Z,2.63
2019-05-15T22:13:31.583Z,2.10
2019-05-15T22:17:34.419Z,2.50
2019-05-15T22:21:40.809Z,2.20
2019-05-15T22:25:43.939Z,2.03
2019-05-15T22:29:48.178Z,2.53
2019-05-15T22:33:51.334Z,2.50
2019-05-15T22:37:54.350Z,2.70
2019-05-15T22:41:57.350Z,2.83
2019-05-15T22:46:00.347Z,3.77
2019-05-15T22:50:08.156Z,3.40
2019-05-15T22:54:10.551Z,3.00
2019-05-15T22:58:13.544Z,3.00
2019-05-15T23:02:17.983Z,3.00
2019-05-15T23:06:21.421Z,2.63
2019-05-15T23:10:24.406Z,2.43
2019-05-15T23:14:28.752Z,2.27
2019-05-15T23:18:31.915Z,2.73
2019-05-15T23:22:38.571Z,2.10
2019-05-15T23:26:41.674Z,2.77
2019-05-15T23:30:44.681Z,2.33
2019-05-15T23:34:49.169Z,2.43
2019-05-15T23:38:52.333Z,2.37
2019-05-15T23:42:56.404Z,2.20
2019-05-15T23:46:59.402Z,2.40
2019-05-15T23:51:02.398Z,2.53
2019-05-15T23:55:08.305Z,2.27
2019-05-15T23:59:11.126Z,2.70
